createdAt,value
2018-04-23T00:01:19.666Z,7.83
2018-04-23T00:03:54.287Z,8.03
2018-04-23T00:06:29.744Z,8.23
2018-04-23T00:09:04.384Z,7.47
2018-04-23T00:11:38.557Z,7.60
2018-04-23T00:14:13.051Z,7.90
2018-04-23T00:16:48.129Z,8.10
2018-04-23T00:19:22.134Z,8.60
2018-04-23T00:21:56.985Z,8.50
2018-04-23T00:24:30.982Z,8.27
2018-04-23T00:27:04.945Z,8.17
2018-04-23T00:29:39.519Z,8.57
2018-04-23T00:32:13.938Z,8.27
2018-04-23T00:34:49.113Z,7.77
2018-04-23T00:37:22.790Z,8.00
2018-04-23T00:39:57.169Z,8.43
2018-04-23T00:42:31.789Z,8.27
2018-04-23T00:45:07.063Z,8.30
2018-04-23T00:47:41.459Z,8.23
2018-04-23T00:50:16.613Z,8.00
2018-04-23T00:53:03.056Z,8.30
2018-04-23T00:55:37.429Z,8.63
2018-04-23T00:58:11.579Z,8.60
2018-04-23T01:00:46.308Z,9.00
2018-04-23T01:03:21.355Z,8.70
2018-04-23T01:05:56.013Z,8.60
2018-04-23T01:08:29.630Z,9.07
2018-04-23T01:11:04.334Z,8.13
2018-04-23T01:13:39.683Z,8.57
2018-04-23T01:16:13.487Z,8.30
2018-04-23T01:18:47.274Z,8.93
2018-04-23T01:21:21.225Z,8.37
2018-04-23T01:23:55.300Z,8.10
2018-04-23T01:26:29.334Z,8.70
2018-04-23T01:29:03.290Z,8.83
2018-04-23T01:31:37.961Z,8.80
2018-04-23T01:34:12.077Z,8.93
2018-04-23T01:36:46.375Z,8.70
2018-04-23T01:39:20.275Z,8.40
2018-04-23T01:41:54.883Z,8.57
2018-04-23T01:44:29.348Z,9.00
2018-04-23T01:47:04.048Z,8.70
2018-04-23T01:49:38.903Z,8.97
2018-04-23T01:52:12.604Z,8.93
2018-04-23T01:54:47.113Z,9.00
2018-04-23T01:57:21.443Z,9.20
2018-04-23T01:59:58.063Z,9.13
2018-04-23T02:02:32.328Z,9.27
2018-04-23T02:05:06.844Z,9.60
2018-04-23T02:07:40.431Z,9.47
2018-04-23T02:10:15.486Z,8.83
2018-04-23T02:12:49.079Z,8.73
2018-04-23T02:15:22.785Z,8.67
2018-04-23T02:17:56.838Z,8.17
2018-04-23T02:20:30.792Z,8.43
2018-04-23T02:23:05.016Z,9.07
2018-04-23T02:25:40.253Z,9.17
2018-04-23T02:28:14.145Z,8.83
2018-04-23T02:30:48.312Z,8.53
2018-04-23T02:33:22.872Z,9.00
2018-04-23T02:35:57.811Z,9.10
2018-04-23T02:38:31.804Z,8.60
2018-04-23T02:41:06.052Z,9.00
2018-04-23T02:43:40.146Z,8.80
2018-04-23T02:46:14.571Z,8.77
2018-04-23T02:48:49.972Z,8.40
2018-04-23T02:51:24.427Z,8.20
2018-04-23T02:53:59.765Z,9.97
2018-04-23T02:56:34.645Z,8.57
2018-04-23T02:59:09.577Z,8.53
2018-04-23T03:01:43.338Z,8.50
2018-04-23T03:04:17.346Z,8.27
2018-04-23T03:06:53.275Z,8.00
2018-04-23T03:09:28.222Z,8.17
2018-04-23T03:12:02.230Z,8.20
2018-04-23T03:14:36.233Z,8.47
2018-04-23T03:17:10.549Z,8.50
2018-04-23T03:19:45.422Z,8.70
2018-04-23T03:22:19.318Z,8.50
2018-04-23T03:24:53.110Z,8.60
2018-04-23T03:27:27.320Z,8.53
2018-04-23T03:30:01.313Z,8.80
2018-04-23T03:32:35.325Z,8.23
2018-04-23T03:35:09.644Z,8.60
2018-04-23T03:37:44.277Z,8.53
2018-04-23T03:40:18.068Z,8.53
2018-04-23T03:42:52.083Z,8.47
2018-04-23T03:45:26.579Z,8.83
2018-04-23T03:48:00.826Z,8.93
2018-04-23T03:50:34.708Z,8.63
2018-04-23T03:53:09.551Z,8.80
2018-04-23T03:55:44.117Z,8.83
2018-04-23T03:58:17.795Z,8.70
2018-04-23T04:00:51.703Z,9.30
2018-04-23T04:03:26.245Z,9.13
2018-04-23T04:06:00.239Z,9.60
2018-04-23T04:08:35.362Z,8.87
2018-04-23T04:11:09.793Z,8.87
2018-04-23T04:13:56.264Z,9.77
2018-04-23T04:16:42.153Z,10.00
2018-04-23T04:19:17.193Z,9.00
2018-04-23T04:21:50.916Z,8.73
2018-04-23T04:24:24.695Z,8.47
2018-04-23T04:26:58.397Z,9.50
2018-04-23T04:29:33.665Z,8.70
2018-04-23T04:32:07.965Z,9.30
2018-04-23T04:34:42.829Z,9.40
2018-04-23T04:37:16.991Z,9.77
2018-04-23T04:39:51.113Z,8.93
2018-04-23T04:42:25.457Z,9.40
2018-04-23T04:45:01.607Z,8.73
2018-04-23T04:47:37.862Z,9.07
2018-04-23T04:50:12.561Z,9.00
2018-04-23T04:52:47.117Z,8.97
2018-04-23T04:55:21.701Z,8.80
2018-04-23T04:57:56.154Z,8.97
2018-04-23T05:00:30.655Z,8.90
2018-04-23T05:03:04.889Z,9.57
2018-04-23T05:05:38.898Z,10.23
2018-04-23T05:08:13.799Z,9.23
2018-04-23T05:10:47.739Z,9.27
2018-04-23T05:13:22.870Z,9.53
2018-04-23T05:15:57.671Z,9.23
2018-04-23T05:18:33.327Z,10.43
2018-04-23T05:21:07.130Z,9.40
2018-04-23T05:23:42.162Z,9.80
2018-04-23T05:26:15.973Z,9.63
2018-04-23T05:28:50.823Z,9.93
2018-04-23T05:31:24.640Z,10.33
2018-04-23T05:33:59.368Z,10.30
2018-04-23T05:36:34.359Z,9.43
2018-04-23T05:39:09.214Z,9.90
2018-04-23T05:41:42.820Z,10.40
2018-04-23T05:44:18.220Z,10.63
2018-04-23T05:46:53.182Z,10.33
2018-04-23T05:49:27.172Z,9.57
2018-04-23T05:52:01.523Z,9.87
2018-04-23T05:54:35.912Z,11.17
2018-04-23T05:57:10.841Z,10.90
2018-04-23T05:59:45.967Z,10.83
2018-04-23T06:02:21.417Z,10.33
2018-04-23T06:04:55.452Z,10.17
2018-04-23T06:07:29.257Z,11.07
2018-04-23T06:10:03.984Z,10.10
2018-04-23T06:12:37.655Z,10.37
2018-04-23T06:15:12.195Z,10.83
2018-04-23T06:17:46.088Z,10.47
2018-04-23T06:20:21.106Z,9.33
2018-04-23T06:22:54.828Z,9.87
2018-04-23T06:25:29.263Z,9.73
2018-04-23T06:28:04.699Z,10.13
2018-04-23T06:30:38.832Z,9.93
2018-04-23T06:33:13.731Z,9.93
2018-04-23T06:35:48.246Z,10.20
2018-04-23T06:38:23.108Z,9.60
2018-04-23T06:40:57.621Z,9.17
2018-04-23T06:43:31.489Z,8.27
2018-04-23T06:46:05.888Z,7.80
2018-04-23T06:48:39.955Z,7.80
2018-04-23T06:51:13.743Z,8.33
2018-04-23T06:53:47.544Z,7.67
2018-04-23T06:56:21.763Z,7.70
2018-04-23T06:58:56.499Z,8.03
2018-04-23T07:01:31.012Z,7.80
2018-04-23T07:04:05.124Z,7.90
2018-04-23T07:06:39.150Z,8.17
2018-04-23T07:09:13.666Z,7.03
2018-04-23T07:11:48.263Z,5.47
2018-04-23T07:14:23.095Z,5.90
2018-04-23T07:16:57.642Z,5.97
2018-04-23T07:19:31.754Z,5.90
2018-04-23T07:22:06.786Z,5.53
2018-04-23T07:24:41.702Z,5.33
2018-04-23T07:27:15.494Z,5.37
2018-04-23T07:29:49.406Z,5.53
2018-04-23T07:32:23.324Z,5.50
2018-04-23T07:34:58.040Z,5.10
2018-04-23T07:37:32.662Z,5.47
2018-04-23T07:40:07.075Z,5.70
2018-04-23T07:42:42.351Z,5.60
2018-04-23T07:45:16.965Z,5.43
2018-04-23T07:47:52.195Z,5.70
2018-04-23T07:50:26.602Z,5.70
2018-04-23T07:53:01.665Z,5.40
2018-04-23T07:55:36.429Z,5.40
2018-04-23T07:58:10.264Z,5.67
2018-04-23T08:00:45.313Z,5.27
2018-04-23T08:03:19.207Z,6.00
2018-04-23T08:05:53.549Z,5.80
2018-04-23T08:08:28.346Z,6.50
2018-04-23T08:11:03.174Z,6.17
2018-04-23T08:13:36.675Z,6.47
2018-04-23T08:16:11.917Z,7.23
2018-04-23T08:18:46.347Z,11.43
2018-04-23T08:21:20.535Z,11.00
2018-04-23T08:23:55.654Z,8.70
2018-04-23T08:26:29.963Z,7.73
2018-04-23T08:29:04.950Z,6.70
2018-04-23T08:31:38.760Z,6.30
2018-04-23T08:34:13.483Z,6.53
2018-04-23T08:36:48.202Z,5.90
2018-04-23T08:39:23.320Z,6.30
2018-04-23T08:41:57.134Z,6.70
2018-04-23T08:44:31.752Z,6.40
2018-04-23T08:47:06.275Z,5.60
2018-04-23T08:49:40.386Z,5.70
2018-04-23T08:52:14.923Z,4.77
2018-04-23T08:54:50.759Z,5.33
2018-04-23T08:57:26.018Z,4.80
2018-04-23T09:00:03.346Z,4.93
2018-04-23T09:02:36.909Z,4.70
2018-04-23T09:05:12.201Z,4.97
2018-04-23T09:07:46.650Z,4.50
2018-04-23T09:10:20.780Z,4.50
2018-04-23T09:12:55.450Z,4.03
2018-04-23T09:15:30.211Z,4.60
2018-04-23T09:18:04.239Z,3.90
2018-04-23T09:20:38.631Z,4.23
2018-04-23T09:23:13.366Z,4.40
2018-04-23T09:25:47.159Z,4.80
2018-04-23T09:28:22.297Z,3.97
2018-04-23T09:30:55.918Z,4.57
2018-04-23T09:33:30.039Z,4.30
2018-04-23T09:36:04.043Z,4.17
2018-04-23T09:38:37.922Z,4.23
2018-04-23T09:41:11.853Z,4.80
2018-04-23T09:43:45.662Z,4.43
2018-04-23T09:46:21.195Z,4.77
2018-04-23T09:48:54.806Z,4.50
2018-04-23T09:51:29.125Z,4.20
2018-04-23T09:54:03.539Z,4.60
2018-04-23T09:56:37.156Z,4.27
2018-04-23T09:59:11.771Z,4.50
2018-04-23T10:01:51.410Z,4.30
2018-04-23T10:04:26.067Z,4.27
2018-04-23T10:07:00.243Z,4.63
2018-04-23T10:09:35.106Z,4.73
2018-04-23T10:12:08.807Z,4.57
2018-04-23T10:14:43.171Z,4.83
2018-04-23T10:17:16.894Z,4.90
2018-04-23T10:19:51.699Z,5.07
2018-04-23T10:22:25.419Z,5.33
2018-04-23T10:24:59.136Z,4.77
2018-04-23T10:27:33.204Z,5.37
2018-04-23T10:30:07.133Z,5.07
2018-04-23T10:32:42.324Z,5.03
2018-04-23T10:35:16.068Z,5.03
2018-04-23T10:37:50.098Z,4.67
2018-04-23T10:40:24.197Z,5.50
2018-04-23T10:42:58.010Z,5.30
2018-04-23T10:45:33.944Z,5.53
2018-04-23T10:48:07.558Z,6.07
2018-04-23T10:50:41.473Z,5.70
2018-04-23T10:53:16.187Z,5.97
2018-04-23T10:55:51.020Z,5.60
2018-04-23T10:58:24.622Z,6.50
2018-04-23T11:00:58.407Z,5.87
2018-04-23T11:03:32.959Z,5.77
2018-04-23T11:06:06.655Z,5.90
2018-04-23T11:08:41.173Z,7.10
2018-04-23T11:11:14.775Z,6.00
2018-04-23T11:13:48.575Z,5.00
2018-04-23T11:16:23.202Z,5.60
2018-04-23T11:18:56.775Z,4.57
2018-04-23T11:21:30.983Z,5.67
2018-04-23T11:24:04.793Z,5.90
2018-04-23T11:26:39.636Z,5.77
2018-04-23T11:29:14.044Z,6.50
2018-04-23T11:31:47.946Z,6.43
2018-04-23T11:34:22.909Z,7.47
2018-04-23T11:36:56.491Z,5.50
2018-04-23T11:39:30.578Z,6.73
2018-04-23T11:42:05.016Z,6.50
2018-04-23T11:44:38.985Z,6.20
2018-04-23T11:47:12.938Z,6.20
2018-04-23T11:49:47.076Z,6.63
2018-04-23T11:52:21.665Z,9.23
2018-04-23T11:54:56.000Z,6.10
2018-04-23T11:57:33.063Z,5.60
2018-04-23T12:00:07.175Z,5.97
2018-04-23T12:02:43.459Z,5.90
2018-04-23T12:05:17.239Z,5.37
2018-04-23T12:07:51.788Z,5.40
2018-04-23T12:30:14.424Z,9.57
2018-04-23T12:32:48.231Z,6.17
2018-04-23T12:35:23.068Z,5.33
2018-04-23T12:37:57.274Z,5.27
2018-04-23T12:40:32.326Z,5.27
2018-04-23T12:43:06.320Z,5.30
2018-04-23T12:45:40.052Z,5.50
2018-04-23T12:48:14.866Z,5.03
2018-04-23T12:50:49.266Z,5.37
2018-04-23T12:53:26.036Z,7.10
2018-04-23T12:56:01.704Z,5.40
2018-04-23T12:58:36.408Z,6.47
2018-04-23T13:01:12.062Z,6.77
2018-04-23T13:03:47.176Z,6.40
2018-04-23T13:06:23.353Z,6.43
2018-04-23T13:09:01.483Z,6.70
2018-04-23T13:11:37.751Z,6.83
2018-04-23T13:14:13.685Z,6.77
2018-04-23T13:16:48.181Z,6.97
2018-04-23T13:19:23.617Z,7.20
2018-04-23T13:21:59.148Z,7.13
2018-04-23T13:24:35.444Z,7.67
2018-04-23T13:27:14.711Z,7.00
2018-04-23T13:29:49.924Z,7.73
2018-04-23T13:32:24.115Z,7.30
2018-04-23T13:34:59.246Z,7.37
2018-04-23T13:37:33.659Z,7.33
2018-04-23T13:40:07.752Z,7.23
2018-04-23T13:42:44.017Z,7.63
2018-04-23T13:45:18.800Z,7.47
2018-04-23T13:47:53.223Z,7.47
2018-04-23T13:50:27.820Z,7.53
2018-04-23T13:53:02.261Z,8.50
2018-04-23T13:55:36.666Z,7.60
2018-04-23T13:58:13.127Z,7.50
2018-04-23T14:00:48.443Z,7.57
2018-04-23T14:03:24.168Z,7.23
2018-04-23T14:05:58.672Z,7.57
2018-04-23T14:08:33.824Z,6.93
2018-04-23T14:11:07.794Z,7.33
2018-04-23T14:13:43.231Z,7.20
2018-04-23T14:16:18.055Z,6.90
2018-04-23T14:18:53.766Z,6.13
2018-04-23T14:21:29.211Z,6.90
2018-04-23T14:24:05.090Z,6.50
2018-04-23T14:26:39.951Z,6.73
2018-04-23T14:29:14.732Z,6.63
2018-04-23T14:31:49.412Z,6.87
2018-04-23T14:34:24.309Z,6.33
2018-04-23T14:36:58.424Z,5.97
2018-04-23T14:39:32.260Z,5.80
2018-04-23T14:42:05.846Z,5.70
2018-04-23T14:44:40.261Z,5.77
2018-04-23T14:47:14.786Z,5.60
2018-04-23T14:49:49.524Z,5.83
2018-04-23T14:52:23.949Z,5.50
2018-04-23T14:54:57.814Z,5.17
2018-04-23T14:57:32.667Z,5.43
2018-04-23T15:00:07.280Z,4.87
2018-04-23T15:02:42.722Z,5.50
2018-04-23T15:05:16.412Z,5.30
2018-04-23T15:07:51.032Z,4.00
2018-04-23T15:10:26.354Z,4.20
2018-04-23T15:13:00.507Z,4.57
2018-04-23T15:15:34.307Z,4.20
2018-04-23T15:18:09.219Z,3.97
2018-04-23T15:20:43.545Z,3.50
2018-04-23T15:23:17.340Z,4.13
2018-04-23T15:25:51.896Z,3.73
2018-04-23T15:28:26.344Z,3.80
2018-04-23T15:31:00.282Z,3.77
2018-04-23T15:33:34.822Z,4.07
2018-04-23T15:36:08.869Z,3.60
2018-04-23T15:38:43.541Z,3.97
2018-04-23T15:41:17.988Z,4.10
2018-04-23T15:43:53.014Z,4.27
2018-04-23T15:46:27.534Z,4.27
2018-04-23T15:49:03.094Z,4.20
2018-04-23T15:51:37.402Z,4.33
2018-04-23T15:54:11.691Z,4.20
2018-04-23T15:56:45.914Z,4.60
2018-04-23T15:59:21.268Z,3.97
2018-04-23T16:01:59.964Z,4.03
2018-04-23T16:04:35.106Z,4.60
2018-04-23T16:07:10.051Z,4.40
2018-04-23T16:09:45.687Z,4.57
2018-04-23T16:12:21.348Z,4.97
2018-04-23T16:14:55.457Z,4.70
2018-04-23T16:17:30.757Z,5.23
2018-04-23T16:20:06.329Z,4.90
2018-04-23T16:22:41.392Z,4.80
2018-04-23T16:25:15.381Z,4.40
2018-04-23T16:27:49.278Z,4.63
2018-04-23T16:30:24.109Z,4.80
2018-04-23T16:32:58.000Z,4.60
2018-04-23T16:35:33.352Z,4.90
2018-04-23T16:38:07.575Z,4.53
2018-04-23T16:40:41.886Z,4.80
2018-04-23T16:43:16.331Z,5.13
2018-04-23T16:45:53.748Z,5.30
2018-04-23T16:48:28.930Z,5.17
2018-04-23T16:51:03.534Z,4.70
2018-04-23T16:53:38.281Z,5.27
2018-04-23T16:56:12.046Z,5.17
2018-04-23T16:58:46.611Z,5.50
2018-04-23T17:01:21.047Z,5.60
2018-04-23T17:03:55.843Z,5.30
2018-04-23T17:06:30.508Z,5.83
2018-04-23T17:09:05.504Z,6.00
2018-04-23T17:11:39.416Z,5.03
2018-04-23T17:14:15.165Z,5.17
2018-04-23T17:16:48.778Z,5.90
2018-04-23T17:19:24.015Z,5.47
2018-04-23T17:21:58.335Z,5.47
2018-04-23T17:24:32.188Z,5.13
2018-04-23T17:27:06.553Z,5.00
2018-04-23T17:29:41.714Z,5.20
2018-04-23T17:32:16.019Z,5.27
2018-04-23T17:34:50.098Z,5.40
2018-04-23T17:37:24.854Z,5.90
2018-04-23T17:39:58.742Z,5.87
2018-04-23T17:42:33.682Z,5.23
2018-04-23T17:45:08.402Z,5.57
2018-04-23T17:47:42.259Z,5.20
2018-04-23T17:50:16.927Z,5.20
2018-04-23T17:52:52.020Z,5.47
2018-04-23T17:55:27.118Z,5.23
2018-04-23T17:58:02.339Z,5.33
2018-04-23T18:00:36.855Z,5.40
2018-04-23T18:03:11.817Z,5.67
2018-04-23T18:05:45.911Z,5.63
2018-04-23T18:08:19.937Z,6.17
2018-04-23T18:10:53.628Z,6.20
2018-04-23T18:13:28.450Z,5.17
2018-04-23T18:16:02.594Z,4.67
2018-04-23T18:18:39.809Z,5.23
2018-04-23T18:21:14.296Z,5.37
2018-04-23T18:23:48.115Z,5.50
2018-04-23T18:26:22.757Z,5.37
2018-04-23T18:28:56.459Z,5.20
2018-04-23T18:31:31.079Z,5.83
2018-04-23T18:34:05.427Z,5.80
2018-04-23T18:36:40.162Z,5.60
2018-04-23T18:39:14.877Z,5.60
2018-04-23T18:41:51.153Z,6.20
2018-04-23T18:44:27.004Z,5.67
2018-04-23T18:47:02.174Z,5.40
2018-04-23T18:49:37.341Z,5.70
2018-04-23T18:52:15.379Z,5.83
2018-04-23T18:54:51.622Z,5.47
2018-04-23T18:57:26.139Z,5.77
2018-04-23T19:00:02.111Z,6.67
2018-04-23T19:02:35.933Z,5.80
2018-04-23T19:05:10.092Z,6.00
2018-04-23T19:07:44.747Z,6.60
2018-04-23T19:10:19.557Z,5.80
2018-04-23T19:12:53.531Z,6.00
2018-04-23T19:15:27.143Z,5.70
2018-04-23T19:18:01.080Z,6.30
2018-04-23T19:20:34.772Z,6.27
2018-04-23T19:23:08.717Z,6.47
2018-04-23T19:25:43.021Z,5.80
2018-04-23T19:28:17.572Z,6.00
2018-04-23T19:30:51.559Z,5.83
2018-04-23T19:33:26.095Z,6.13
2018-04-23T19:35:59.736Z,5.63
2018-04-23T19:38:33.790Z,6.30
2018-04-23T19:41:07.957Z,6.33
2018-04-23T19:43:42.065Z,5.90
2018-04-23T19:46:17.372Z,5.93
2018-04-23T19:48:51.383Z,6.30
2018-04-23T19:51:25.888Z,5.83
2018-04-23T19:54:00.524Z,5.90
2018-04-23T19:56:34.313Z,5.77
2018-04-23T19:59:08.233Z,6.20
2018-04-23T20:01:42.851Z,5.77
2018-04-23T20:04:17.540Z,6.27
2018-04-23T20:06:52.052Z,6.43
2018-04-23T20:09:25.986Z,5.60
2018-04-23T20:12:00.410Z,6.30
2018-04-23T20:14:34.393Z,6.23
2018-04-23T20:17:08.023Z,6.70
2018-04-23T20:19:42.340Z,6.13
2018-04-23T20:22:16.459Z,5.97
2018-04-23T20:24:50.570Z,6.30
2018-04-23T20:27:25.184Z,6.67
2018-04-23T20:30:00.124Z,5.90
2018-04-23T20:32:33.804Z,6.80
2018-04-23T20:35:08.335Z,6.17
2018-04-23T20:37:43.164Z,6.60
2018-04-23T20:40:17.067Z,6.03
2018-04-23T20:42:51.190Z,6.63
2018-04-23T20:45:25.205Z,6.67
2018-04-23T20:47:58.920Z,5.60
2018-04-23T20:50:34.359Z,6.43
2018-04-23T20:53:07.967Z,6.53
2018-04-23T20:55:42.999Z,6.10
2018-04-23T20:58:16.778Z,6.27
2018-04-23T21:00:50.709Z,6.47
2018-04-23T21:03:25.212Z,6.20
2018-04-23T21:05:59.208Z,7.43
2018-04-23T21:08:33.222Z,6.30
2018-04-23T21:11:07.092Z,6.73
2018-04-23T21:13:41.368Z,6.57
2018-04-23T21:16:16.273Z,6.73
2018-04-23T21:18:50.149Z,6.97
2018-04-23T21:21:24.194Z,6.40
2018-04-23T21:23:58.586Z,6.47
2018-04-23T21:26:33.806Z,6.30
2018-04-23T21:29:08.487Z,7.13
2018-04-23T21:31:43.623Z,6.37
2018-04-23T21:34:18.451Z,7.40
2018-04-23T21:36:52.847Z,6.77
2018-04-23T21:39:26.502Z,6.10
2018-04-23T21:42:01.375Z,6.23
2018-04-23T21:44:35.820Z,6.50
2018-04-23T21:47:10.358Z,6.03
2018-04-23T21:49:44.845Z,6.70
2018-04-23T21:52:18.366Z,6.90
2018-04-23T21:54:53.191Z,6.60
2018-04-23T21:57:26.978Z,6.57
2018-04-23T22:00:01.518Z,6.83
2018-04-23T22:02:35.891Z,6.27
2018-04-23T22:05:11.089Z,7.20
2018-04-23T22:07:45.902Z,7.07
2018-04-23T22:10:20.418Z,6.93
2018-04-23T22:12:54.842Z,7.10
2018-04-23T22:15:29.848Z,6.97
2018-04-23T22:18:04.540Z,7.27
2018-04-23T22:20:39.432Z,7.00
2018-04-23T22:23:13.063Z,7.23
2018-04-23T22:25:46.810Z,7.60
2018-04-23T22:28:21.232Z,7.20
2018-04-23T22:30:55.752Z,7.43
2018-04-23T22:33:29.479Z,7.63
2018-04-23T22:36:03.365Z,7.30
2018-04-23T22:38:38.302Z,7.77
2018-04-23T22:41:12.958Z,7.37
2018-04-23T22:43:47.458Z,7.93
2018-04-23T22:46:22.988Z,7.63
2018-04-23T22:48:56.595Z,7.67
2018-04-23T22:51:31.310Z,7.73
2018-04-23T22:54:05.642Z,6.87
2018-04-23T22:56:40.247Z,7.90
2018-04-23T22:59:14.486Z,8.13
2018-04-23T23:01:48.383Z,7.83
2018-04-23T23:04:22.375Z,7.60
2018-04-23T23:06:56.915Z,7.93
2018-04-23T23:09:31.817Z,7.43
2018-04-23T23:12:05.555Z,8.13
2018-04-23T23:14:39.442Z,7.93
2018-04-23T23:17:14.266Z,7.37
2018-04-23T23:19:47.974Z,7.47
2018-04-23T23:22:22.500Z,8.13
2018-04-23T23:24:57.030Z,7.40
2018-04-23T23:27:31.547Z,6.97
2018-04-23T23:30:06.159Z,7.77
2018-04-23T23:32:39.978Z,6.93
2018-04-23T23:35:14.587Z,6.73
2018-04-23T23:37:49.098Z,7.47
2018-04-23T23:40:23.847Z,7.20
2018-04-23T23:42:58.781Z,6.37
2018-04-23T23:45:34.526Z,6.50
2018-04-23T23:48:08.142Z,6.43
2018-04-23T23:50:43.143Z,6.87
2018-04-23T23:53:17.774Z,6.43
2018-04-23T23:55:52.692Z,6.97
2018-04-23T23:58:27.211Z,6.57
